createdAt,value
2019-03-22T00:00:34.787Z,8.44
2019-03-22T00:03:06.645Z,8.45
2019-03-22T00:05:38.552Z,8.46
2019-03-22T00:08:10.453Z,8.47
2019-03-22T00:10:42.327Z,8.49
2019-03-22T00:13:14.266Z,8.53
2019-03-22T00:15:46.150Z,8.52
2019-03-22T00:18:18.111Z,8.58
2019-03-22T00:20:50.034Z,8.53
2019-03-22T00:23:21.973Z,8.35
2019-03-22T00:25:53.840Z,8.28
2019-03-22T00:28:25.945Z,8.23
2019-03-22T00:30:57.821Z,8.19
2019-03-22T00:33:29.681Z,8.20
2019-03-22T00:36:03.058Z,8.16
2019-03-22T00:38:34.899Z,8.04
2019-03-22T00:41:07.052Z,8.15
2019-03-22T00:43:38.909Z,8.25
2019-03-22T00:46:10.787Z,8.28
2019-03-22T00:48:42.788Z,8.19
2019-03-22T00:51:14.695Z,8.10
2019-03-22T00:53:46.568Z,8.07
2019-03-22T00:56:18.475Z,8.04
2019-03-22T00:58:50.433Z,7.92
2019-03-22T01:01:22.724Z,7.81
2019-03-22T01:03:54.574Z,7.75
2019-03-22T01:06:26.575Z,7.78
2019-03-22T01:08:58.472Z,7.74
2019-03-22T01:11:30.757Z,7.71
2019-03-22T01:14:03.841Z,7.57
2019-03-22T01:16:35.717Z,7.38
2019-03-22T01:19:07.651Z,7.39
2019-03-22T01:21:39.513Z,7.30
2019-03-22T01:24:11.479Z,7.30
2019-03-22T01:26:43.337Z,7.39
2019-03-22T01:29:15.239Z,7.28
2019-03-22T01:31:47.158Z,7.25
2019-03-22T01:34:19.007Z,7.21
2019-03-22T01:36:51.462Z,7.15
2019-03-22T01:39:23.359Z,7.18
2019-03-22T01:41:55.331Z,7.21
2019-03-22T01:44:27.241Z,7.24
2019-03-22T01:46:59.236Z,7.26
2019-03-22T01:49:32.855Z,7.13
2019-03-22T01:52:05.078Z,7.01
2019-03-22T01:54:36.990Z,6.95
2019-03-22T01:57:08.895Z,6.90
2019-03-22T01:59:40.787Z,6.97
2019-03-22T02:02:12.673Z,6.81
2019-03-22T02:04:44.558Z,6.85
2019-03-22T02:07:16.420Z,6.86
2019-03-22T02:09:48.344Z,6.80
2019-03-22T02:12:20.257Z,6.71
2019-03-22T02:14:52.160Z,6.78
2019-03-22T02:17:24.052Z,6.67
2019-03-22T02:19:55.958Z,6.67
2019-03-22T02:22:27.850Z,6.80
2019-03-22T02:25:00.352Z,6.88
2019-03-22T02:27:32.214Z,6.97
2019-03-22T02:30:04.249Z,6.88
2019-03-22T02:32:36.382Z,6.85
2019-03-22T02:35:09.226Z,6.78
2019-03-22T02:37:41.146Z,6.74
2019-03-22T02:40:14.198Z,6.70
2019-03-22T02:42:46.080Z,6.62
2019-03-22T02:45:18.117Z,6.54
2019-03-22T02:47:49.976Z,6.50
2019-03-22T02:50:21.945Z,6.42
2019-03-22T02:52:53.782Z,6.32
2019-03-22T02:55:25.675Z,6.27
2019-03-22T02:57:57.674Z,6.16
2019-03-22T03:00:30.917Z,6.11
2019-03-22T03:03:02.795Z,6.20
2019-03-22T03:05:34.702Z,6.19
2019-03-22T03:08:06.589Z,6.25
2019-03-22T03:10:38.454Z,6.32
2019-03-22T03:13:10.406Z,6.21
2019-03-22T03:15:42.289Z,5.99
2019-03-22T03:18:14.530Z,6.05
2019-03-22T03:20:46.479Z,6.07
2019-03-22T03:23:18.409Z,6.00
2019-03-22T03:25:50.251Z,5.81
2019-03-22T03:28:35.992Z,5.88
2019-03-22T03:30:55.827Z,5.94
2019-03-22T03:33:28.076Z,5.91
2019-03-22T03:36:00.322Z,6.04
2019-03-22T03:38:32.236Z,5.85
2019-03-22T03:41:04.149Z,5.72
2019-03-22T03:43:37.244Z,5.62
2019-03-22T03:46:09.153Z,5.49
2019-03-22T03:48:41.047Z,5.69
2019-03-22T03:51:12.913Z,5.74
2019-03-22T03:53:44.813Z,5.60
2019-03-22T03:56:16.655Z,5.55
2019-03-22T03:58:52.789Z,5.41
2019-03-22T04:01:22.122Z,5.45
2019-03-22T04:03:54.411Z,5.47
2019-03-22T04:06:26.247Z,5.54
2019-03-22T04:08:58.149Z,5.61
2019-03-22T04:11:30.045Z,5.60
2019-03-22T04:14:02.515Z,5.66
2019-03-22T04:16:34.426Z,5.62
2019-03-22T04:19:06.526Z,5.63
2019-03-22T04:21:38.386Z,5.67
2019-03-22T04:24:11.812Z,5.57
2019-03-22T04:26:43.694Z,5.50
2019-03-22T04:29:16.598Z,5.35
2019-03-22T04:31:48.448Z,5.27
2019-03-22T04:34:20.886Z,5.12
2019-03-22T04:36:52.740Z,5.02
2019-03-22T04:39:24.709Z,4.96
2019-03-22T04:41:58.357Z,4.93
2019-03-22T04:44:30.188Z,4.88
2019-03-22T04:47:03.500Z,4.86
2019-03-22T04:49:37.657Z,4.78
2019-03-22T04:52:10.070Z,4.87
2019-03-22T04:54:43.630Z,4.79
2019-03-22T04:57:16.648Z,4.81
2019-03-22T04:59:50.499Z,4.85
2019-03-22T05:02:22.491Z,4.89
2019-03-22T05:04:55.503Z,4.92
2019-03-22T05:07:27.482Z,4.96
2019-03-22T05:10:00.469Z,5.01
2019-03-22T05:12:33.374Z,5.11
2019-03-22T05:15:07.929Z,4.95
2019-03-22T05:17:40.201Z,4.94
2019-03-22T05:20:13.297Z,4.89
2019-03-22T05:22:47.755Z,4.93
2019-03-22T05:25:21.961Z,4.98
2019-03-22T05:27:54.694Z,4.99
2019-03-22T05:31:05.051Z,4.95
2019-03-22T05:33:36.970Z,4.78
2019-03-22T05:36:08.833Z,4.53
2019-03-22T05:38:40.764Z,4.45
2019-03-22T05:41:13.796Z,4.40
2019-03-22T05:43:45.820Z,4.46
2019-03-22T05:46:17.680Z,4.46
2019-03-22T05:48:50.030Z,4.43
2019-03-22T05:51:21.911Z,4.42
2019-03-22T05:53:53.923Z,4.44
2019-03-22T05:56:25.861Z,4.44
2019-03-22T05:58:58.190Z,4.41
2019-03-22T06:01:30.093Z,4.42
2019-03-22T06:04:02.360Z,4.35
2019-03-22T06:06:34.224Z,4.33
2019-03-22T06:09:08.584Z,4.39
2019-03-22T06:11:40.611Z,4.34
2019-03-22T06:14:12.698Z,4.31
2019-03-22T06:16:44.627Z,4.34
2019-03-22T06:19:16.489Z,4.25
2019-03-22T06:21:48.406Z,4.22
2019-03-22T06:24:22.201Z,4.15
2019-03-22T06:26:53.901Z,4.09
2019-03-22T06:29:25.936Z,3.98
2019-03-22T06:31:58.008Z,3.99
2019-03-22T06:34:29.937Z,4.10
2019-03-22T06:37:02.406Z,4.13
2019-03-22T06:39:34.323Z,4.18
2019-03-22T06:42:06.371Z,4.21
2019-03-22T06:44:38.295Z,4.21
2019-03-22T06:47:11.159Z,4.17
2019-03-22T06:49:43.509Z,4.01
2019-03-22T06:52:15.504Z,4.08
2019-03-22T06:54:47.443Z,4.08
2019-03-22T06:57:19.426Z,4.06
2019-03-22T06:59:53.121Z,4.13
2019-03-22T07:02:25.255Z,4.20
2019-03-22T07:04:57.163Z,4.29
2019-03-22T07:07:29.073Z,4.32
2019-03-22T07:10:01.049Z,4.57
2019-03-22T07:12:33.095Z,4.67
2019-03-22T07:15:05.629Z,4.75
2019-03-22T07:17:37.553Z,4.86
2019-03-22T07:20:09.767Z,4.96
2019-03-22T07:22:41.642Z,5.05
2019-03-22T07:25:13.754Z,5.24
2019-03-22T07:27:45.607Z,5.35
2019-03-22T07:30:19.430Z,5.47
2019-03-22T07:32:51.377Z,5.55
2019-03-22T07:35:23.435Z,5.70
2019-03-22T07:37:55.337Z,5.84
2019-03-22T07:40:27.225Z,5.97
2019-03-22T07:42:59.767Z,6.06
2019-03-22T07:45:31.689Z,6.23
2019-03-22T07:48:03.596Z,6.43
2019-03-22T07:50:35.481Z,6.59
2019-03-22T07:53:07.394Z,6.75
2019-03-22T07:55:39.263Z,6.91
2019-03-22T07:58:11.602Z,7.04
2019-03-22T08:00:43.534Z,7.24
2019-03-22T08:03:15.434Z,7.77
2019-03-22T08:05:51.527Z,9.39
2019-03-22T08:08:21.442Z,11.57
2019-03-22T08:10:53.399Z,14.34
2019-03-22T08:13:25.337Z,16.02
2019-03-22T08:15:57.783Z,16.87
2019-03-22T08:18:29.922Z,17.75
2019-03-22T08:21:02.326Z,19.27
2019-03-22T08:23:34.285Z,19.54
2019-03-22T08:26:06.291Z,19.34
2019-03-22T08:28:38.171Z,19.12
2019-03-22T08:31:10.487Z,20.16
2019-03-22T08:33:42.454Z,20.49
2019-03-22T08:36:15.021Z,21.62
2019-03-22T08:38:47.211Z,22.56
2019-03-22T08:41:19.273Z,22.33
2019-03-22T08:43:51.144Z,22.54
2019-03-22T08:46:23.575Z,23.45
2019-03-22T08:48:55.684Z,24.65
2019-03-22T08:51:29.926Z,23.57
2019-03-22T08:54:01.297Z,24.88
2019-03-22T08:56:35.906Z,24.79
2019-03-22T08:59:07.108Z,25.41
2019-03-22T09:01:39.009Z,26.46
2019-03-22T09:04:10.882Z,27.39
2019-03-22T09:06:42.756Z,28.13
2019-03-22T09:09:14.699Z,28.52
2019-03-22T09:11:46.570Z,28.69
2019-03-22T09:14:18.447Z,29.33
2019-03-22T09:16:50.486Z,29.97
2019-03-22T09:19:22.854Z,30.85
2019-03-22T09:21:54.838Z,31.98
2019-03-22T09:24:38.621Z,31.21
2019-03-22T09:27:00.355Z,30.48
2019-03-22T09:29:32.249Z,29.05
2019-03-22T09:32:04.217Z,30.49
2019-03-22T09:34:36.329Z,29.84
2019-03-22T09:37:09.071Z,30.98
2019-03-22T09:39:41.527Z,31.23
2019-03-22T09:42:13.451Z,32.64
2019-03-22T09:44:45.730Z,31.84
2019-03-22T09:47:17.894Z,31.09
2019-03-22T09:49:51.379Z,33.20
2019-03-22T09:52:23.543Z,32.84
2019-03-22T09:54:55.448Z,32.86
2019-03-22T09:57:27.358Z,32.47
2019-03-22T09:59:59.253Z,32.71
2019-03-22T10:02:31.168Z,32.91
2019-03-22T10:05:03.345Z,32.99
2019-03-22T10:07:35.334Z,34.59
2019-03-22T10:10:07.945Z,33.58
2019-03-22T10:12:39.878Z,34.29
2019-03-22T10:15:11.936Z,32.80
2019-03-22T10:17:43.839Z,34.44
2019-03-22T10:20:15.943Z,34.17
2019-03-22T10:22:47.781Z,35.81
2019-03-22T10:25:19.821Z,35.46
2019-03-22T10:27:51.635Z,33.42
2019-03-22T10:30:23.541Z,33.85
2019-03-22T10:32:55.530Z,32.56
2019-03-22T10:35:27.832Z,33.73
2019-03-22T10:38:00.786Z,34.32
2019-03-22T10:40:33.196Z,33.85
2019-03-22T10:43:05.081Z,35.17
2019-03-22T10:45:36.981Z,35.54
2019-03-22T10:48:08.945Z,36.26
2019-03-22T10:50:40.911Z,35.30
2019-03-22T10:53:12.858Z,35.14
2019-03-22T10:55:44.737Z,35.66
2019-03-22T10:58:21.245Z,36.15
2019-03-22T11:00:50.257Z,35.91
2019-03-22T11:03:22.154Z,35.74
2019-03-22T11:05:54.076Z,35.62
2019-03-22T11:08:25.918Z,34.71
2019-03-22T11:10:59.109Z,35.47
2019-03-22T11:13:31.019Z,35.22
2019-03-22T11:16:03.038Z,36.04
2019-03-22T11:18:37.487Z,35.69
2019-03-22T11:21:08.976Z,34.62
2019-03-22T11:23:40.987Z,34.43
2019-03-22T11:26:13.085Z,36.02
2019-03-22T11:28:45.997Z,35.64
2019-03-22T11:31:17.934Z,36.37
2019-03-22T11:33:49.826Z,37.02
2019-03-22T11:36:21.895Z,37.08
2019-03-22T11:38:53.809Z,34.38
2019-03-22T11:41:25.657Z,34.29
2019-03-22T11:43:57.651Z,35.53
2019-03-22T11:46:31.086Z,36.11
2019-03-22T11:49:03.185Z,36.19
2019-03-22T11:51:35.120Z,38.46
2019-03-22T11:54:07.623Z,37.22
2019-03-22T11:56:39.519Z,37.62
2019-03-22T11:59:11.846Z,38.04
2019-03-22T12:01:44.116Z,38.10
2019-03-22T12:04:17.137Z,37.86
2019-03-22T12:06:49.061Z,37.07
2019-03-22T12:09:22.945Z,36.96
2019-03-22T12:11:54.546Z,37.14
2019-03-22T12:14:26.423Z,36.55
2019-03-22T12:16:58.648Z,35.55
2019-03-22T12:19:30.545Z,35.22
2019-03-22T12:22:02.460Z,34.03
2019-03-22T12:24:34.330Z,32.53
2019-03-22T12:27:06.273Z,33.13
2019-03-22T12:29:38.177Z,33.21
2019-03-22T12:32:10.078Z,31.80
2019-03-22T12:34:41.947Z,30.27
2019-03-22T12:37:13.859Z,28.69
2019-03-22T12:39:46.545Z,28.34
2019-03-22T12:42:18.557Z,26.61
2019-03-22T12:44:50.395Z,26.04
2019-03-22T12:47:23.424Z,25.54
2019-03-22T12:49:55.461Z,25.44
2019-03-22T12:52:27.549Z,25.13
2019-03-22T12:54:59.481Z,24.36
2019-03-22T12:57:31.377Z,23.90
2019-03-22T13:00:03.447Z,23.60
2019-03-22T13:02:42.162Z,23.85
2019-03-22T13:05:09.717Z,23.43
2019-03-22T13:07:41.633Z,23.81
2019-03-22T13:10:15.344Z,23.83
2019-03-22T13:12:47.253Z,23.88
2019-03-22T13:15:19.296Z,23.87
2019-03-22T13:17:51.366Z,24.08
2019-03-22T13:20:23.278Z,24.00
2019-03-22T13:22:55.284Z,24.15
2019-03-22T13:25:27.194Z,24.36
2019-03-22T13:27:59.055Z,24.38
2019-03-22T13:30:36.259Z,24.39
2019-03-22T13:33:09.688Z,24.68
2019-03-22T13:35:42.163Z,24.48
2019-03-22T13:38:14.049Z,24.47
2019-03-22T13:40:45.997Z,24.41
2019-03-22T13:43:17.872Z,24.53
2019-03-22T13:45:49.779Z,24.69
2019-03-22T13:48:21.712Z,24.44
2019-03-22T13:50:53.764Z,24.54
2019-03-22T13:53:25.723Z,24.37
2019-03-22T13:55:57.740Z,23.98
2019-03-22T13:58:29.630Z,23.72
2019-03-22T14:01:01.536Z,23.81
2019-03-22T14:03:33.786Z,23.83
2019-03-22T14:06:05.731Z,24.30
2019-03-22T14:08:38.692Z,24.06
2019-03-22T14:11:10.705Z,23.99
2019-03-22T14:13:42.596Z,23.79
2019-03-22T14:16:14.516Z,23.44
2019-03-22T14:18:46.477Z,23.48
2019-03-22T14:21:19.337Z,23.56
2019-03-22T14:23:51.256Z,23.61
2019-03-22T14:26:23.105Z,23.49
2019-03-22T14:28:55.061Z,23.23
2019-03-22T14:31:26.920Z,23.28
2019-03-22T14:33:58.889Z,23.60
2019-03-22T14:36:30.752Z,23.51
2019-03-22T14:39:04.294Z,23.56
2019-03-22T14:41:36.199Z,23.27
2019-03-22T14:44:10.956Z,23.09
2019-03-22T14:46:44.088Z,23.12
2019-03-22T14:49:15.946Z,23.24
2019-03-22T14:51:47.855Z,23.38
2019-03-22T14:54:19.755Z,22.97
2019-03-22T14:56:51.654Z,23.14
2019-03-22T14:59:23.852Z,22.45
2019-03-22T15:01:55.707Z,22.77
2019-03-22T15:04:27.705Z,22.84
2019-03-22T15:06:59.545Z,22.69
2019-03-22T15:09:31.495Z,22.91
2019-03-22T15:12:03.361Z,22.89
2019-03-22T15:15:01.271Z,22.97
2019-03-22T15:17:59.729Z,22.78
2019-03-22T15:20:49.500Z,22.93
2019-03-22T15:23:43.408Z,22.93
2019-03-22T15:26:37.363Z,22.93
2019-03-22T15:29:28.252Z,23.06
2019-03-22T15:32:13.841Z,22.68
2019-03-22T15:35:03.676Z,22.58
2019-03-22T15:37:54.690Z,22.61
2019-03-22T15:40:26.635Z,22.73
2019-03-22T15:42:58.819Z,22.79
2019-03-22T15:45:30.680Z,22.90
2019-03-22T15:48:02.754Z,22.68
2019-03-22T15:50:34.683Z,22.36
2019-03-22T15:53:07.297Z,22.30
2019-03-22T15:55:39.314Z,22.12
2019-03-22T15:58:11.210Z,22.00
2019-03-22T16:00:43.174Z,21.80
2019-03-22T16:03:15.174Z,21.92
2019-03-22T16:05:47.249Z,21.67
2019-03-22T16:08:19.749Z,21.70
2019-03-22T16:10:52.051Z,21.74
2019-03-22T16:13:24.067Z,21.85
2019-03-22T16:15:56.111Z,21.80
2019-03-22T16:18:28.191Z,21.69
2019-03-22T16:21:00.448Z,21.63
2019-03-22T16:23:32.835Z,21.41
2019-03-22T16:26:04.784Z,21.40
2019-03-22T16:28:36.842Z,21.31
2019-03-22T16:31:08.977Z,21.24
2019-03-22T16:33:41.145Z,21.29
2019-03-22T16:36:13.384Z,21.25
2019-03-22T16:38:45.871Z,21.12
2019-03-22T16:41:18.097Z,21.21
2019-03-22T16:43:50.131Z,20.94
2019-03-22T16:46:22.008Z,20.91
2019-03-22T16:48:54.048Z,20.88
2019-03-22T16:51:26.028Z,20.88
2019-03-22T16:53:58.115Z,20.84
2019-03-22T16:56:30.059Z,20.76
2019-03-22T16:59:01.963Z,20.71
2019-03-22T17:01:34.002Z,20.52
2019-03-22T17:04:06.115Z,20.61
2019-03-22T17:06:38.295Z,20.56
2019-03-22T17:09:10.549Z,20.59
2019-03-22T17:11:42.658Z,20.60
2019-03-22T17:14:14.629Z,20.54
2019-03-22T17:16:46.500Z,20.45
2019-03-22T17:19:18.415Z,20.38
2019-03-22T17:21:50.282Z,20.43
2019-03-22T17:24:22.187Z,20.31
2019-03-22T17:26:54.049Z,20.15
2019-03-22T17:29:25.979Z,20.14
2019-03-22T17:31:57.863Z,20.02
2019-03-22T17:34:29.770Z,20.06
2019-03-22T17:37:01.611Z,19.99
2019-03-22T17:39:33.504Z,20.00
2019-03-22T17:42:05.496Z,19.89
2019-03-22T17:44:37.411Z,19.71
2019-03-22T17:47:09.253Z,19.66
2019-03-22T17:49:48.141Z,19.71
2019-03-22T17:52:15.624Z,19.55
2019-03-22T17:54:47.518Z,19.52
2019-03-22T17:57:19.766Z,19.48
2019-03-22T17:59:51.664Z,19.40
2019-03-22T18:02:24.085Z,19.37
2019-03-22T18:04:56.047Z,19.23
2019-03-22T18:07:28.179Z,19.09
2019-03-22T18:10:00.295Z,18.99
2019-03-22T18:12:32.962Z,18.92
2019-03-22T18:15:06.084Z,18.88
2019-03-22T18:17:38.213Z,18.80
2019-03-22T18:20:11.765Z,18.68
2019-03-22T18:22:43.720Z,18.59
2019-03-22T18:25:15.936Z,18.45
2019-03-22T18:27:48.383Z,18.31
2019-03-22T18:30:20.279Z,18.18
2019-03-22T18:32:52.276Z,18.08
2019-03-22T18:35:24.201Z,17.97
2019-03-22T18:37:56.150Z,17.88
2019-03-22T18:40:28.050Z,17.80
2019-03-22T18:43:00.005Z,17.64
2019-03-22T18:45:32.204Z,17.56
2019-03-22T18:48:04.173Z,17.51
2019-03-22T18:50:36.041Z,17.44
2019-03-22T18:53:08.067Z,17.36
2019-03-22T18:55:40.020Z,17.23
2019-03-22T18:58:11.937Z,17.22
2019-03-22T19:00:43.776Z,16.96
2019-03-22T19:03:15.691Z,17.09
2019-03-22T19:05:48.039Z,16.99
2019-03-22T19:08:19.947Z,16.72
2019-03-22T19:10:51.839Z,16.67
2019-03-22T19:13:30.682Z,16.46
2019-03-22T19:15:57.279Z,16.39
2019-03-22T19:18:32.729Z,16.32
2019-03-22T19:21:04.207Z,16.38
2019-03-22T19:23:36.112Z,16.32
2019-03-22T19:26:08.430Z,16.28
2019-03-22T19:28:40.459Z,16.20
2019-03-22T19:31:12.315Z,16.11
2019-03-22T19:33:44.231Z,16.10
2019-03-22T19:36:16.242Z,15.96
2019-03-22T19:38:48.154Z,15.88
2019-03-22T19:41:20.023Z,15.82
2019-03-22T19:43:51.920Z,15.73
2019-03-22T19:46:24.343Z,15.62
2019-03-22T19:48:56.233Z,15.55
2019-03-22T19:51:28.806Z,15.50
2019-03-22T19:54:00.726Z,15.36
2019-03-22T19:56:32.911Z,15.34
2019-03-22T19:59:05.199Z,15.28
2019-03-22T20:01:37.648Z,15.19
2019-03-22T20:04:09.620Z,15.22
2019-03-22T20:06:41.514Z,15.12
2019-03-22T20:09:13.418Z,14.94
2019-03-22T20:11:45.355Z,14.82
2019-03-22T20:14:17.249Z,14.75
2019-03-22T20:16:49.159Z,14.57
2019-03-22T20:19:21.005Z,14.45
2019-03-22T20:21:52.897Z,14.31
2019-03-22T20:24:24.779Z,14.15
2019-03-22T20:26:56.645Z,14.15
2019-03-22T20:29:29.934Z,14.12
2019-03-22T20:32:02.170Z,14.02
2019-03-22T20:34:34.091Z,13.92
2019-03-22T20:37:06.347Z,13.94
2019-03-22T20:39:38.264Z,13.77
2019-03-22T20:42:10.209Z,13.55
2019-03-22T20:44:42.136Z,13.52
2019-03-22T20:47:14.009Z,13.44
2019-03-22T20:49:45.907Z,13.37
2019-03-22T20:52:17.762Z,13.40
2019-03-22T20:54:49.730Z,13.39
2019-03-22T20:57:21.624Z,13.40
2019-03-22T20:59:53.963Z,13.32
2019-03-22T21:02:25.877Z,13.23
2019-03-22T21:04:58.020Z,13.11
2019-03-22T21:07:29.901Z,13.05
2019-03-22T21:10:02.277Z,13.01
2019-03-22T21:12:34.238Z,12.88
2019-03-22T21:15:07.129Z,12.87
2019-03-22T21:17:39.075Z,12.79
2019-03-22T21:20:11.324Z,12.72
2019-03-22T21:22:43.272Z,12.68
2019-03-22T21:25:15.338Z,12.47
2019-03-22T21:27:47.328Z,12.35
2019-03-22T21:30:19.184Z,12.24
2019-03-22T21:32:51.136Z,12.25
2019-03-22T21:35:24.346Z,12.26
2019-03-22T21:37:57.295Z,12.26
2019-03-22T21:40:29.570Z,12.17
2019-03-22T21:43:01.627Z,12.16
2019-03-22T21:45:33.475Z,12.08
2019-03-22T21:48:05.530Z,11.97
2019-03-22T21:50:38.470Z,11.81
2019-03-22T21:53:10.382Z,11.81
2019-03-22T21:55:42.262Z,11.70
2019-03-22T21:58:14.178Z,11.55
2019-03-22T22:00:46.458Z,11.53
2019-03-22T22:03:18.353Z,11.52
2019-03-22T22:05:50.226Z,11.59
2019-03-22T22:08:22.643Z,11.51
2019-03-22T22:10:59.645Z,11.39
2019-03-22T22:13:28.543Z,11.29
2019-03-22T22:16:00.419Z,11.27
2019-03-22T22:18:33.457Z,11.26
2019-03-22T22:21:05.353Z,11.18
2019-03-22T22:23:37.232Z,11.12
2019-03-22T22:26:09.169Z,10.94
2019-03-22T22:28:41.066Z,10.78
2019-03-22T22:31:12.978Z,10.70
2019-03-22T22:33:45.005Z,10.62
2019-03-22T22:36:16.913Z,10.58
2019-03-22T22:38:48.798Z,10.47
2019-03-22T22:41:20.758Z,10.44
2019-03-22T22:43:53.257Z,10.34
2019-03-22T22:46:25.269Z,10.38
2019-03-22T22:48:57.163Z,10.39
2019-03-22T22:51:29.521Z,10.37
2019-03-22T22:54:01.441Z,10.42
2019-03-22T22:56:33.398Z,10.47
2019-03-22T22:59:05.266Z,10.42
2019-03-22T23:01:37.279Z,10.42
2019-03-22T23:04:09.312Z,10.38
2019-03-22T23:06:41.194Z,10.20
2019-03-22T23:09:13.115Z,10.03
2019-03-22T23:11:45.028Z,10.07
2019-03-22T23:14:17.421Z,10.09
2019-03-22T23:16:49.288Z,9.79
2019-03-22T23:19:21.189Z,9.71
2019-03-22T23:21:53.883Z,9.66
2019-03-22T23:24:31.411Z,9.66
2019-03-22T23:27:05.240Z,9.81
2019-03-22T23:29:40.081Z,9.85
2019-03-22T23:32:13.221Z,9.95
2019-03-22T23:34:45.731Z,9.81
2019-03-22T23:37:20.177Z,9.77
2019-03-22T23:39:55.890Z,9.69
2019-03-22T23:42:30.930Z,9.51
2019-03-22T23:45:02.938Z,9.37
2019-03-22T23:47:35.254Z,9.27
2019-03-22T23:50:07.719Z,9.16
2019-03-22T23:52:39.628Z,8.99
2019-03-22T23:55:11.475Z,8.88
2019-03-22T23:57:43.814Z,8.84
